Time;durP1;ratioP1;P1;durP2;ratioP2;P2;SDS_P1;SDS_P2;PMS_P1;PMS_P2;Temp;Humidity;BMP_temperature;BMP_pressure;BME280_temperature;BME280_humidity;BME280_pressure;Samples;Min_cycle;Max_cycle;Signal;HPM_P1;HPM_P2
2023/07/15 00:00:50;;;;;;;4.47;4.17;;;20.10;99.90;;;;;;5036764;28;20430;-78
2023/07/15 00:03:18;;;;;;;5.93;4.60;;;20.10;99.90;;;;;;5036696;28;20191;-77
2023/07/15 00:05:45;;;;;;;4.80;4.40;;;20.10;99.90;;;;;;5035851;28;20394;-79
2023/07/15 00:08:11;;;;;;;5.23;4.70;;;20.10;99.90;;;;;;5036676;28;20421;-70
2023/07/15 00:10:40;;;;;;;6.97;4.50;;;20.10;99.90;;;;;;5019566;28;20538;-68
2023/07/15 00:13:10;;;;;;;5.40;4.77;;;20.00;99.90;;;;;;5016549;28;20506;-75
2023/07/15 00:15:36;;;;;;;6.07;5.47;;;20.00;99.90;;;;;;5015554;28;20498;-68
2023/07/15 00:18:01;;;;;;;4.87;4.33;;;20.00;99.90;;;;;;5016607;28;20477;-73
2023/07/15 00:20:28;;;;;;;4.17;3.77;;;19.90;99.90;;;;;;5016588;28;20172;-78
2023/07/15 00:22:54;;;;;;;6.40;4.23;;;19.90;99.90;;;;;;5036010;28;20222;-77
2023/07/15 00:25:20;;;;;;;6.40;4.43;;;19.90;99.90;;;;;;5019117;28;20542;-78
2023/07/15 00:27:48;;;;;;;4.90;4.50;;;19.90;99.90;;;;;;5027034;28;20434;-78
2023/07/15 00:30:16;;;;;;;7.23;5.00;;;19.90;99.90;;;;;;5036187;28;20445;-74
2023/07/15 00:32:46;;;;;;;5.57;4.57;;;20.00;99.90;;;;;;5036035;28;20398;-68
2023/07/15 00:35:28;;;;;;;7.73;3.93;;;20.00;99.90;;;;;;5033359;28;20410;-68
2023/07/15 00:37:54;;;;;;;5.57;4.97;;;19.90;99.90;;;;;;5036070;28;20421;-68
2023/07/15 00:40:20;;;;;;;4.67;4.00;;;19.90;99.90;;;;;;5036400;28;20453;-77
2023/07/15 00:43:23;;;;;;;5.67;4.33;;;19.90;99.90;;;;;;5027042;28;20454;-68
2023/07/15 00:46:22;;;;;;;4.90;4.23;;;19.90;99.90;;;;;;5014853;28;20528;-75
2023/07/15 00:49:09;;;;;;;3.90;3.60;;;19.90;99.90;;;;;;5023981;28;20980;-76
2023/07/15 00:51:39;;;;;;;4.43;4.03;;;19.90;99.90;;;;;;5034602;28;20452;-68
2023/07/15 00:54:07;;;;;;;7.33;4.13;;;19.90;99.90;;;;;;5036013;28;20418;-77
2023/07/15 00:56:35;;;;;;;7.47;4.30;;;19.80;99.90;;;;;;5034630;28;20429;-75
2023/07/15 00:59:02;;;;;;;6.30;4.10;;;19.80;99.90;;;;;;5016339;28;20415;-69
2023/07/15 01:01:28;;;;;;;5.17;3.80;;;19.80;99.90;;;;;;5016024;28;20410;-68
2023/07/15 01:03:57;;;;;;;4.53;4.00;;;19.80;99.90;;;;;;5027775;28;20422;-76
2023/07/15 01:06:23;;;;;;;5.40;4.57;;;19.80;99.90;;;;;;5034266;28;20430;-77
2023/07/15 01:08:49;;;;;;;6.80;4.30;;;19.80;99.90;;;;;;5035151;28;20960;-76
2023/07/15 01:11:15;;;;;;;3.90;3.53;;;19.70;99.90;;;;;;5034347;28;20458;-68
2023/07/15 01:13:41;;;;;;;5.23;4.50;;;19.70;99.90;;;;;;5034626;28;20171;-73
2023/07/15 01:16:06;;;;;;;4.43;3.93;;;19.70;99.90;;;;;;5033169;28;20226;-68
2023/07/15 01:18:32;;;;;;;5.37;4.73;;;19.70;99.90;;;;;;5035072;28;20327;-71
2023/07/15 01:20:59;;;;;;;5.23;4.40;;;19.70;99.90;;;;;;5035502;28;20178;-68
2023/07/15 01:23:26;;;;;;;5.23;4.47;;;19.70;99.90;;;;;;5031474;28;20175;-72
2023/07/15 01:25:51;;;;;;;4.50;4.10;;;19.70;99.90;;;;;;5034181;28;20826;-77
2023/07/15 01:28:17;;;;;;;9.83;4.50;;;19.70;99.90;;;;;;5033464;28;20442;-77
2023/07/15 01:30:43;;;;;;;6.33;4.43;;;19.70;99.90;;;;;;5035307;28;20227;-68
2023/07/15 01:33:09;;;;;;;5.07;4.50;;;19.70;99.90;;;;;;5033523;28;20176;-71
2023/07/15 01:35:35;;;;;;;4.87;4.30;;;19.70;99.90;;;;;;5034074;28;20407;-76
2023/07/15 01:38:01;;;;;;;5.20;3.73;;;19.70;99.90;;;;;;5033532;28;20588;-69
2023/07/15 01:40:27;;;;;;;5.17;4.70;;;19.70;99.90;;;;;;5034693;28;20406;-78
2023/07/15 01:42:53;;;;;;;4.67;4.27;;;19.70;99.90;;;;;;5034201;28;20536;-69
2023/07/15 01:45:18;;;;;;;9.37;4.07;;;19.70;99.90;;;;;;5033462;28;20229;-71
2023/07/15 01:47:44;;;;;;;4.50;4.10;;;19.70;99.90;;;;;;5033933;28;20215;-78
2023/07/15 01:50:10;;;;;;;8.03;4.60;;;19.70;99.90;;;;;;5015413;28;20188;-69
2023/07/15 01:52:35;;;;;;;4.60;4.20;;;19.70;99.90;;;;;;5014796;28;20176;-70
2023/07/15 01:55:01;;;;;;;7.30;4.50;;;19.70;99.90;;;;;;5014274;28;20223;-72
2023/07/15 01:57:29;;;;;;;5.30;4.57;;;19.70;99.90;;;;;;5014422;28;20552;-73
2023/07/15 01:59:57;;;;;;;5.03;4.33;;;19.80;99.90;;;;;;5015719;28;20168;-73
2023/07/15 02:02:26;;;;;;;5.93;4.07;;;19.80;99.90;;;;;;5033751;28;20402;-72
2023/07/15 02:04:52;;;;;;;4.97;4.30;;;19.80;99.90;;;;;;5033816;28;20414;-74
2023/07/15 02:07:18;;;;;;;12.23;4.33;;;19.80;99.90;;;;;;5022350;28;20435;-77
2023/07/15 02:09:43;;;;;;;9.77;4.90;;;19.80;99.90;;;;;;5014830;28;20629;-75
2023/07/15 02:12:09;;;;;;;5.80;4.27;;;19.70;99.90;;;;;;5018044;28;20245;-74
2023/07/15 02:14:36;;;;;;;5.13;4.50;;;19.80;99.90;;;;;;5027523;28;20173;-78
2023/07/15 02:17:03;;;;;;;4.80;4.40;;;19.80;99.90;;;;;;5013842;28;20831;-75
2023/07/15 02:19:32;;;;;;;4.53;4.10;;;19.80;99.90;;;;;;5021144;28;20411;-73
2023/07/15 02:21:58;;;;;;;5.33;4.83;;;19.80;99.90;;;;;;5033559;28;20909;-77
2023/07/15 02:24:24;;;;;;;4.10;3.70;;;19.80;99.90;;;;;;5034238;28;20402;-68
2023/07/15 02:26:50;;;;;;;4.80;4.30;;;19.90;99.90;;;;;;5031398;28;20527;-69
2023/07/15 02:29:16;;;;;;;4.93;4.03;;;19.90;99.90;;;;;;5019556;28;20418;-77
2023/07/15 02:31:42;;;;;;;4.77;4.37;;;19.90;99.90;;;;;;5033654;28;21000;-78
2023/07/15 02:34:08;;;;;;;4.63;4.23;;;19.90;99.90;;;;;;5033567;28;20620;-76
2023/07/15 02:36:35;;;;;;;4.47;3.97;;;19.90;99.90;;;;;;5032647;28;20438;-72
2023/07/15 02:39:01;;;;;;;8.10;5.70;;;19.90;99.90;;;;;;5033862;28;20397;-68
2023/07/15 02:41:26;;;;;;;4.47;4.07;;;19.90;99.90;;;;;;5033333;28;20394;-69
2023/07/15 02:43:52;;;;;;;5.80;4.10;;;19.80;99.90;;;;;;5032595;28;20803;-68
2023/07/15 02:46:18;;;;;;;6.50;4.10;;;19.80;99.90;;;;;;5032760;28;20164;-77
2023/07/15 02:48:43;;;;;;;5.07;3.90;;;19.80;99.90;;;;;;5033496;28;20255;-76
2023/07/15 02:51:09;;;;;;;4.30;4.00;;;19.80;99.90;;;;;;5033623;28;20656;-78
2023/07/15 02:53:35;;;;;;;4.17;3.60;;;19.80;99.90;;;;;;5033244;28;20163;-77
2023/07/15 02:56:00;;;;;;;4.63;4.23;;;19.80;99.90;;;;;;5032781;28;20174;-78
2023/07/15 02:58:26;;;;;;;4.37;4.07;;;19.80;99.90;;;;;;5031669;28;20174;-68
2023/07/15 03:00:52;;;;;;;4.97;4.50;;;19.80;99.90;;;;;;5033376;28;20183;-73
2023/07/15 03:03:20;;;;;;;5.07;4.67;;;19.80;99.90;;;;;;5033536;28;20441;-79
2023/07/15 03:05:49;;;;;;;6.23;4.40;;;19.80;99.90;;;;;;5032710;28;20414;-76
2023/07/15 03:08:16;;;;;;;7.13;4.00;;;19.80;99.90;;;;;;5033480;28;20517;-72
2023/07/15 03:10:45;;;;;;;5.20;4.30;;;19.80;99.90;;;;;;5032888;28;20446;-69
2023/07/15 03:13:11;;;;;;;4.20;3.80;;;19.80;99.90;;;;;;5027470;28;20417;-68
2023/07/15 03:15:39;;;;;;;4.67;4.00;;;19.80;99.90;;;;;;5031292;28;20846;-77
2023/07/15 03:18:04;;;;;;;5.40;4.83;;;19.80;99.90;;;;;;5032221;28;20559;-76
2023/07/15 03:20:30;;;;;;;5.10;4.70;;;19.80;99.90;;;;;;5033360;28;20442;-73
2023/07/15 03:22:57;;;;;;;10.27;4.40;;;19.80;99.90;;;;;;5033375;28;20186;-69
2023/07/15 03:25:23;;;;;;;5.17;4.40;;;19.80;99.90;;;;;;5032480;28;20171;-78
2023/07/15 03:27:50;;;;;;;5.47;4.50;;;19.80;99.90;;;;;;5026535;28;20446;-77
2023/07/15 03:30:16;;;;;;;4.00;3.70;;;19.80;99.90;;;;;;5012058;28;20490;-73
2023/07/15 03:32:43;;;;;;;4.00;3.60;;;19.80;99.90;;;;;;5013313;28;20403;-72
2023/07/15 03:35:09;;;;;;;6.80;4.03;;;19.70;99.90;;;;;;5012403;28;21187;-78
2023/07/15 03:37:39;;;;;;;5.17;4.67;;;19.80;99.90;;;;;;5013295;28;20506;-68
2023/07/15 03:40:08;;;;;;;5.07;4.20;;;19.80;99.90;;;;;;5012194;28;20407;-68
2023/07/15 03:42:35;;;;;;;4.40;4.00;;;19.80;99.90;;;;;;5016855;28;20921;-68
2023/07/15 03:45:01;;;;;;;9.50;3.77;;;19.80;99.90;;;;;;5032736;28;20409;-74
2023/07/15 03:47:27;;;;;;;6.30;4.70;;;19.80;99.90;;;;;;5031234;28;20426;-78
2023/07/15 03:49:53;;;;;;;4.40;4.10;;;19.90;99.90;;;;;;5032788;28;20407;-69
2023/07/15 03:52:18;;;;;;;7.07;4.63;;;19.90;99.90;;;;;;5033146;28;20410;-77
2023/07/15 03:54:44;;;;;;;5.13;4.00;;;19.90;99.90;;;;;;5031065;28;20540;-78
2023/07/15 03:57:10;;;;;;;7.13;5.10;;;19.90;99.90;;;;;;5026650;28;20195;-72
2023/07/15 03:59:36;;;;;;;4.97;4.23;;;19.90;99.90;;;;;;5013176;28;20169;-78
2023/07/15 04:02:03;;;;;;;6.97;4.17;;;19.80;99.90;;;;;;5013427;28;20418;-74
2023/07/15 04:04:29;;;;;;;4.77;4.20;;;19.80;99.90;;;;;;5013163;28;20656;-68
2023/07/15 04:06:55;;;;;;;5.20;4.00;;;19.80;99.90;;;;;;5011712;28;20419;-77
2023/07/15 04:09:21;;;;;;;4.53;4.10;;;19.70;99.90;;;;;;5013346;28;20418;-78
2023/07/15 04:11:47;;;;;;;4.63;4.23;;;19.70;99.90;;;;;;5014579;28;20485;-72
2023/07/15 04:14:13;;;;;;;6.17;3.90;;;19.70;99.90;;;;;;5032711;28;20415;-75
2023/07/15 04:16:42;;;;;;;4.33;3.93;;;19.60;99.90;;;;;;5031907;28;20426;-69
2023/07/15 04:19:07;;;;;;;4.70;4.40;;;19.60;99.90;;;;;;5032871;28;20643;-68
2023/07/15 04:21:33;;;;;;;5.40;4.90;;;19.60;99.90;;;;;;5032875;28;20399;-77
2023/07/15 04:23:59;;;;;;;4.50;4.10;;;19.60;99.90;;;;;;5031203;28;20171;-74
2023/07/15 04:26:27;;;;;;;5.83;3.97;;;19.60;99.90;;;;;;5031589;28;20202;-69
2023/07/15 04:28:56;;;;;;;6.83;4.33;;;19.60;99.90;;;;;;5035239;28;20283;-73
2023/07/15 04:31:22;;;;;;;4.73;3.67;;;19.60;99.90;;;;;;5024622;28;20462;-69
2023/07/15 04:33:50;;;;;;;4.90;4.60;;;19.60;99.90;;;;;;5016145;28;20400;-77
2023/07/15 04:36:20;;;;;;;4.57;4.27;;;19.60;99.90;;;;;;5015750;28;20405;-77
2023/07/15 04:38:46;;;;;;;7.80;4.20;;;19.60;99.90;;;;;;5016309;28;20399;-76
2023/07/15 04:41:12;;;;;;;6.67;4.67;;;19.60;99.90;;;;;;5024043;28;20425;-69
2023/07/15 04:43:37;;;;;;;4.30;4.00;;;19.60;99.90;;;;;;5034666;28;20422;-68
2023/07/15 04:46:04;;;;;;;6.63;4.60;;;19.70;99.90;;;;;;5035396;28;20167;-71
2023/07/15 04:48:30;;;;;;;4.20;3.90;;;19.70;99.90;;;;;;5034547;28;20543;-77
2023/07/15 04:50:56;;;;;;;5.10;4.50;;;19.80;99.90;;;;;;5035961;28;20541;-71
2023/07/15 04:53:22;;;;;;;4.73;4.33;;;19.80;99.90;;;;;;5035754;28;20257;-77
2023/07/15 04:55:49;;;;;;;4.83;4.43;;;19.90;99.90;;;;;;5034258;28;20410;-78
2023/07/15 04:58:17;;;;;;;4.30;4.00;;;19.90;99.90;;;;;;5034974;28;20434;-72
2023/07/15 05:00:48;;;;;;;5.07;4.60;;;19.90;99.90;;;;;;5035323;28;20944;-75
2023/07/15 05:03:14;;;;;;;3.77;3.50;;;19.90;99.90;;;;;;5035557;28;20950;-73
2023/07/15 05:05:40;;;;;;;5.50;4.17;;;20.00;99.90;;;;;;5034606;28;20441;-68
2023/07/15 05:08:12;;;;;;;4.63;3.90;;;20.00;99.90;;;;;;5035124;28;20418;-74
2023/07/15 05:10:38;;;;;;;4.40;3.93;;;20.00;99.90;;;;;;5034622;28;20799;-76
2023/07/15 05:13:06;;;;;;;4.00;3.63;;;20.10;99.90;;;;;;5034510;28;20417;-68
2023/07/15 05:15:33;;;;;;;4.23;3.77;;;20.10;99.90;;;;;;5032786;28;20422;-71
2023/07/15 05:18:01;;;;;;;5.00;4.50;;;20.10;99.90;;;;;;5035081;28;20423;-68
2023/07/15 05:20:28;;;;;;;4.43;4.03;;;20.20;99.90;;;;;;5035081;28;20456;-69
2023/07/15 05:22:54;;;;;;;6.03;4.30;;;20.30;99.90;;;;;;5033563;28;20421;-70
2023/07/15 05:25:21;;;;;;;4.57;4.17;;;20.40;99.90;;;;;;5027840;28;20419;-69
2023/07/15 05:27:46;;;;;;;5.00;4.00;;;20.40;99.90;;;;;;5022151;28;20443;-74
2023/07/15 05:30:12;;;;;;;4.20;3.90;;;20.50;99.90;;;;;;5033654;28;20421;-77
2023/07/15 05:32:38;;;;;;;4.30;3.90;;;20.60;99.90;;;;;;5035167;28;20240;-64
2023/07/15 05:35:04;;;;;;;4.87;4.23;;;20.70;99.90;;;;;;5033937;28;20410;-66
2023/07/15 05:37:30;;;;;;;3.57;3.27;;;20.70;99.90;;;;;;5034273;28;20191;-68
2023/07/15 05:39:56;;;;;;;3.90;3.60;;;20.80;99.90;;;;;;5021404;28;20423;-66
2023/07/15 05:42:22;;;;;;;4.90;4.40;;;20.80;99.90;;;;;;5015389;28;20462;-68
2023/07/15 05:44:47;;;;;;;5.87;4.40;;;20.90;99.90;;;;;;5015068;28;19961;-73
2023/07/15 05:47:13;;;;;;;4.87;4.40;;;21.00;99.90;;;;;;5012982;28;20196;-75
2023/07/15 05:49:39;;;;;;;4.70;4.30;;;21.00;99.90;;;;;;5015026;28;20184;-67
2023/07/15 05:52:05;;;;;;;4.50;4.10;;;21.00;99.90;;;;;;5022714;28;20196;-67
2023/07/15 05:54:31;;;;;;;4.73;3.83;;;21.00;99.90;;;;;;5034048;28;20167;-75
2023/07/15 05:56:56;;;;;;;4.13;3.83;;;21.00;99.90;;;;;;5033294;28;20460;-76
2023/07/15 05:59:22;;;;;;;4.43;4.03;;;21.00;99.90;;;;;;5034649;28;20175;-66
2023/07/15 06:01:48;;;;;;;5.30;3.50;;;21.00;99.90;;;;;;5033247;28;20640;-66
2023/07/15 06:04:14;;;;;;;4.30;3.90;;;21.00;99.90;;;;;;5034631;28;20172;-67
2023/07/15 06:06:40;;;;;;;4.53;4.13;;;21.10;99.90;;;;;;5033433;28;20195;-72
2023/07/15 06:09:06;;;;;;;4.63;4.13;;;21.10;99.90;;;;;;5033891;28;20417;-67
2023/07/15 06:11:32;;;;;;;3.93;3.40;;;21.10;99.90;;;;;;5033874;28;20237;-71
2023/07/15 06:14:00;;;;;;;4.57;4.17;;;21.20;99.90;;;;;;5032341;28;20418;-68
2023/07/15 06:16:26;;;;;;;9.57;3.60;;;21.20;99.90;;;;;;5032857;28;20977;-65
2023/07/15 06:18:52;;;;;;;5.30;4.27;;;21.30;99.90;;;;;;5034084;28;20430;-65
2023/07/15 06:21:18;;;;;;;3.73;3.43;;;21.30;99.90;;;;;;5033817;28;20426;-65
2023/07/15 06:23:44;;;;;;;7.20;4.03;;;21.30;99.90;;;;;;5025873;28;20419;-65
2023/07/15 06:26:09;;;;;;;5.10;4.07;;;21.40;99.90;;;;;;5011989;28;20546;-74
2023/07/15 06:28:35;;;;;;;4.13;3.63;;;21.40;99.90;;;;;;5014016;28;20205;-71
2023/07/15 06:31:06;;;;;;;4.53;3.70;;;21.40;99.90;;;;;;5025200;28;20285;-67
2023/07/15 06:33:33;;;;;;;3.83;3.50;;;21.50;99.90;;;;;;5034136;28;20191;-68
2023/07/15 06:35:59;;;;;;;8.70;3.90;;;21.50;99.90;;;;;;5031422;28;20787;-67
2023/07/15 06:38:27;;;;;;;3.70;3.40;;;21.60;99.90;;;;;;5022108;28;21266;-68
2023/07/15 06:40:53;;;;;;;4.70;4.27;;;21.80;99.90;;;;;;5030853;28;20422;-72
2023/07/15 06:43:19;;;;;;;5.40;4.00;;;21.80;99.90;;;;;;5033028;28;20443;-67
2023/07/15 06:45:45;;;;;;;4.50;4.10;;;21.90;99.90;;;;;;5032194;28;20418;-72
2023/07/15 06:48:10;;;;;;;4.70;3.60;;;22.00;99.90;;;;;;5026063;28;20706;-72
2023/07/15 06:50:36;;;;;;;5.07;3.90;;;22.10;99.90;;;;;;5033678;28;20270;-72
2023/07/15 06:53:02;;;;;;;4.60;3.63;;;22.20;99.90;;;;;;5030581;28;20186;-68
2023/07/15 06:55:28;;;;;;;5.70;4.20;;;22.20;99.90;;;;;;5028009;28;20176;-65
2023/07/15 06:57:54;;;;;;;4.13;3.53;;;22.30;99.90;;;;;;5019424;28;21481;-64
2023/07/15 07:00:22;;;;;;;6.10;4.30;;;22.40;99.90;;;;;;5014136;28;20176;-72
2023/07/15 07:02:48;;;;;;;3.77;3.50;;;22.40;99.90;;;;;;5013823;28;20160;-71
2023/07/15 07:05:15;;;;;;;4.37;3.20;;;22.50;99.90;;;;;;5025234;28;20983;-66
2023/07/15 07:07:41;;;;;;;4.07;3.77;;;22.60;99.90;;;;;;5033263;28;20331;-65
2023/07/15 07:10:07;;;;;;;4.10;3.80;;;22.60;99.90;;;;;;5023553;28;20415;-70
2023/07/15 07:12:33;;;;;;;5.10;3.87;;;22.70;99.90;;;;;;5013725;28;20251;-67
2023/07/15 07:14:59;;;;;;;6.00;4.13;;;22.90;99.90;;;;;;5013784;28;20526;-65
2023/07/15 07:17:24;;;;;;;4.73;3.97;;;22.90;99.90;;;;;;5011641;28;20282;-66
2023/07/15 07:19:50;;;;;;;4.40;4.00;;;23.00;99.90;;;;;;5024780;28;20246;-65
2023/07/15 07:22:16;;;;;;;7.30;4.93;;;23.00;99.90;;;;;;5032963;28;20172;-66
2023/07/15 07:24:41;;;;;;;6.60;3.67;;;23.10;99.90;;;;;;5032937;28;20255;-65
2023/07/15 07:27:07;;;;;;;4.07;3.77;;;23.20;99.90;;;;;;5026634;28;20199;-72
2023/07/15 07:29:34;;;;;;;4.50;3.60;;;23.30;99.90;;;;;;5031779;28;20266;-64
2023/07/15 07:31:59;;;;;;;5.90;3.17;;;23.40;99.90;;;;;;5033102;28;20449;-69
2023/07/15 07:34:25;;;;;;;4.93;4.53;;;23.40;99.90;;;;;;5032810;28;20390;-66
2023/07/15 07:36:51;;;;;;;4.03;3.27;;;23.50;99.90;;;;;;5031892;28;20192;-72
2023/07/15 07:39:17;;;;;;;3.83;3.53;;;23.60;99.90;;;;;;5029636;28;20171;-68
2023/07/15 07:41:42;;;;;;;4.07;3.73;;;23.70;99.90;;;;;;5030832;28;20190;-72
2023/07/15 07:44:11;;;;;;;4.80;3.57;;;23.70;99.90;;;;;;5014396;28;20533;-73
2023/07/15 07:46:36;;;;;;;3.77;3.17;;;23.80;99.90;;;;;;5012392;28;20188;-71
2023/07/15 07:49:02;;;;;;;4.90;3.13;;;23.90;99.90;;;;;;5012484;28;20490;-70
2023/07/15 07:51:28;;;;;;;4.27;3.87;;;23.90;99.90;;;;;;5012740;28;20203;-74
2023/07/15 07:53:54;;;;;;;4.27;3.87;;;24.00;99.90;;;;;;5015190;28;20272;-66
2023/07/15 07:56:20;;;;;;;5.70;3.57;;;24.10;99.90;;;;;;5025031;28;20986;-68
2023/07/15 07:58:46;;;;;;;3.20;3.00;;;24.20;99.90;;;;;;5012794;28;20502;-68
2023/07/15 08:01:12;;;;;;;3.53;3.23;;;24.30;99.90;;;;;;5018448;28;20184;-76
2023/07/15 08:03:38;;;;;;;4.20;3.80;;;24.40;99.90;;;;;;5021378;28;20183;-68
2023/07/15 08:06:04;;;;;;;4.73;3.57;;;24.50;99.90;;;;;;5015048;28;20415;-70
2023/07/15 08:08:30;;;;;;;4.80;3.50;;;24.70;99.90;;;;;;5015282;28;20640;-75
2023/07/15 08:10:56;;;;;;;3.30;3.10;;;24.80;99.90;;;;;;5016853;28;20439;-74
2023/07/15 08:13:22;;;;;;;3.40;3.10;;;24.90;99.90;;;;;;5016712;28;20399;-70
2023/07/15 08:15:47;;;;;;;3.87;2.93;;;25.00;99.90;;;;;;5016288;28;20179;-68
2023/07/15 08:18:13;;;;;;;2.83;2.63;;;25.10;99.90;;;;;;5016460;28;20195;-75
2023/07/15 08:20:42;;;;;;;4.40;3.30;;;25.10;99.90;;;;;;5035525;28;20249;-70
2023/07/15 08:23:08;;;;;;;4.30;3.90;;;25.10;99.90;;;;;;5033334;28;20564;-68
2023/07/15 08:25:35;;;;;;;3.73;3.43;;;25.20;99.90;;;;;;5019186;28;20454;-69
2023/07/15 08:28:01;;;;;;;3.27;2.97;;;25.20;99.90;;;;;;5019411;28;20442;-74
2023/07/15 08:30:27;;;;;;;5.40;3.50;;;25.30;99.90;;;;;;5031410;28;20464;-72
2023/07/15 08:32:53;;;;;;;6.33;4.07;;;25.40;99.90;;;;;;5034136;28;20531;-76
2023/07/15 08:35:18;;;;;;;3.57;3.27;;;25.50;99.90;;;;;;5025133;28;20636;-76
2023/07/15 08:37:44;;;;;;;3.53;3.23;;;25.60;99.90;;;;;;5024910;28;20199;-69
2023/07/15 08:40:13;;;;;;;7.07;3.30;;;25.70;99.90;;;;;;5016644;28;20195;-76
2023/07/15 08:42:40;;;;;;;3.60;3.40;;;25.80;99.90;;;;;;5015858;28;20156;-69
2023/07/15 08:45:06;;;;;;;3.00;2.80;;;25.80;99.90;;;;;;5014278;28;20411;-71
2023/07/15 08:47:32;;;;;;;2.87;2.67;;;26.00;99.90;;;;;;5017013;28;20455;-73
2023/07/15 08:50:02;;;;;;;3.87;3.57;;;26.10;99.90;;;;;;5019292;28;20525;-70
2023/07/15 08:52:30;;;;;;;9.50;3.40;;;26.20;99.90;;;;;;5035538;28;20203;-68
2023/07/15 08:54:56;;;;;;;5.00;2.77;;;26.30;99.90;;;;;;5035778;28;20434;-77
2023/07/15 08:57:23;;;;;;;4.40;3.67;;;26.50;99.90;;;;;;5033542;28;20466;-69
2023/07/15 08:59:54;;;;;;;3.77;3.47;;;26.50;99.90;;;;;;5035453;28;20930;-75
2023/07/15 09:02:20;;;;;;;10.77;3.10;;;26.70;99.90;;;;;;5025204;28;20467;-73
2023/07/15 09:04:46;;;;;;;3.83;3.43;;;26.80;99.90;;;;;;5026255;28;20886;-75
2023/07/15 09:07:11;;;;;;;3.23;2.93;;;27.00;99.90;;;;;;5026970;28;20200;-71
2023/07/15 09:09:38;;;;;;;5.40;3.10;;;27.10;99.90;;;;;;5015403;28;20172;-76
2023/07/15 09:12:06;;;;;;;5.07;3.50;;;27.30;99.90;;;;;;5014533;28;20203;-72
2023/07/15 09:14:46;;;;;;;3.60;3.30;;;27.50;99.90;;;;;;5015864;28;20876;-71
2023/07/15 09:17:24;;;;;;;4.53;3.20;;;27.60;99.90;;;;;;5020878;28;20425;-71
2023/07/15 09:19:50;;;;;;;7.97;3.13;;;27.80;99.90;;;;;;5032458;28;20438;-74
2023/07/15 09:22:17;;;;;;;2.40;2.20;;;27.90;99.90;;;;;;5033768;28;20440;-75
2023/07/15 09:24:43;;;;;;;3.07;2.87;;;28.00;99.90;;;;;;5033419;28;20180;-75
2023/07/15 09:27:09;;;;;;;3.37;3.10;;;28.00;99.90;;;;;;5033880;28;20418;-69
2023/07/15 09:29:35;;;;;;;3.13;2.90;;;28.10;99.90;;;;;;5050276;28;20494;-75
2023/07/15 09:32:01;;;;;;;4.27;2.77;;;28.10;99.90;;;;;;5033899;28;20983;-74
2023/07/15 09:34:27;;;;;;;3.97;3.47;;;28.10;99.90;;;;;;5033360;28;20183;-68
2023/07/15 09:36:54;;;;;;;3.47;3.17;;;28.30;99.90;;;;;;5032904;28;20602;-69
2023/07/15 09:39:22;;;;;;;4.70;3.10;;;28.50;99.90;;;;;;5033309;28;20237;-69
2023/07/15 09:42:05;;;;;;;2.83;2.63;;;28.60;99.90;;;;;;5034974;28;20485;-75
2023/07/15 09:44:39;;;;;;;4.00;3.10;;;28.80;99.90;;;;;;5033564;28;20430;-74
2023/07/15 09:47:06;;;;;;;8.10;3.43;;;29.00;99.90;;;;;;5017407;28;20481;-70
2023/07/15 09:49:32;;;;;;;2.80;2.60;;;29.20;99.90;;;;;;5017791;28;20461;-74
2023/07/15 09:51:58;;;;;;;4.40;2.90;;;29.60;99.90;;;;;;5032268;28;20429;-74
2023/07/15 09:54:29;;;;;;;3.00;2.80;;;30.00;99.90;;;;;;5020738;28;20423;-69
2023/07/15 09:57:03;;;;;;;4.27;2.77;;;30.10;99.90;;;;;;5013152;28;20466;-76
2023/07/15 09:59:54;;;;;;;5.53;2.97;;;30.20;99.90;;;;;;5014710;28;20399;-76
2023/07/15 10:02:42;;;;;;;5.20;2.50;;;30.50;99.90;;;;;;5030706;28;20825;-69
2023/07/15 10:05:13;;;;;;;3.10;2.80;;;30.80;99.90;;;;;;5033450;28;20433;-76
2023/07/15 10:07:43;;;;;;;3.40;3.10;;;30.70;99.90;;;;;;5031131;28;20453;-70
2023/07/15 10:10:09;;;;;;;3.27;2.60;;;30.80;99.90;;;;;;5014618;28;20407;-75
2023/07/15 10:12:36;;;;;;;2.93;2.73;;;30.80;99.90;;;;;;5012942;28;20419;-70
2023/07/15 10:15:03;;;;;;;3.60;2.70;;;30.70;99.90;;;;;;5013861;28;20447;-70
2023/07/15 10:17:38;;;;;;;2.97;2.63;;;30.80;99.90;;;;;;5014427;28;20796;-70
2023/07/15 10:20:18;;;;;;;2.83;2.53;;;30.70;99.90;;;;;;5014492;28;20434;-75
2023/07/15 10:22:44;;;;;;;2.67;2.47;;;30.90;99.90;;;;;;5017322;28;20572;-72
2023/07/15 10:25:12;;;;;;;5.20;2.47;;;31.00;99.90;;;;;;5013459;28;20756;-77
2023/07/15 10:27:38;;;;;;;2.90;2.60;;;31.30;99.90;;;;;;5013887;28;20427;-70
2023/07/15 10:30:23;;;;;;;6.97;3.10;;;31.70;99.90;;;;;;5026915;28;20422;-73
2023/07/15 10:33:00;;;;;;;6.47;2.30;;;31.80;99.90;;;;;;5034038;28;20886;-72
2023/07/15 10:35:34;;;;;;;2.93;2.63;;;31.90;99.90;;;;;;5031766;28;20407;-70
2023/07/15 10:38:19;;;;;;;2.70;2.50;;;32.10;99.90;;;;;;5031192;28;20438;-69
2023/07/15 10:40:48;;;;;;;3.03;2.47;;;32.20;99.90;;;;;;5033596;28;20399;-73
2023/07/15 10:43:35;;;;;;;3.10;2.90;;;32.10;99.90;;;;;;5032226;28;20414;-72
2023/07/15 10:46:16;;;;;;;3.10;2.50;;;32.00;99.90;;;;;;5032428;28;20527;-75
2023/07/15 10:48:42;;;;;;;2.70;2.50;;;32.20;99.90;;;;;;5032649;28;20441;-70
2023/07/15 10:51:11;;;;;;;3.20;2.23;;;32.50;99.90;;;;;;5033796;28;20446;-75
2023/07/15 10:53:39;;;;;;;3.43;3.00;;;32.60;99.90;;;;;;5020820;28;20200;-73
2023/07/15 10:56:07;;;;;;;3.43;3.10;;;32.50;99.90;;;;;;5012964;28;20426;-70
2023/07/15 10:58:35;;;;;;;2.67;2.47;;;32.50;99.90;;;;;;5029679;28;20233;-74
2023/07/15 11:01:03;;;;;;;4.70;2.83;;;32.60;99.90;;;;;;5033387;28;20768;-70
2023/07/15 11:03:31;;;;;;;3.10;2.67;;;32.90;99.90;;;;;;5033505;28;20882;-77
2023/07/15 11:05:58;;;;;;;2.90;2.60;;;33.10;99.90;;;;;;5032562;28;20411;-75
2023/07/15 11:08:25;;;;;;;2.37;2.10;;;33.00;99.90;;;;;;5030790;28;20461;-75
2023/07/15 11:11:05;;;;;;;2.83;2.23;;;32.90;99.90;;;;;;5033347;28;20480;-71
2023/07/15 11:13:35;;;;;;;3.63;2.40;;;32.70;99.90;;;;;;5033643;28;20485;-77
2023/07/15 11:16:00;;;;;;;3.93;2.53;;;32.90;99.90;;;;;;5032065;28;20850;-70
2023/07/15 11:18:27;;;;;;;4.10;2.40;;;33.10;99.90;;;;;;5032249;28;20504;-76
2023/07/15 11:20:54;;;;;;;2.53;1.60;;;33.40;99.90;;;;;;5032821;28;20855;-74
2023/07/15 11:23:20;;;;;;;2.50;2.30;;;33.50;99.90;;;;;;5031314;28;20484;-69
2023/07/15 11:25:46;;;;;;;3.80;2.07;;;33.50;99.90;;;;;;5032426;28;20399;-75
2023/07/15 11:28:13;;;;;;;2.50;1.77;;;33.50;99.90;;;;;;5033229;28;20436;-70
2023/07/15 11:30:43;;;;;;;6.10;2.37;;;33.60;99.90;;;;;;5033411;28;20443;-76
2023/07/15 11:33:11;;;;;;;4.47;2.00;;;33.80;99.90;;;;;;5033223;28;20409;-70
2023/07/15 11:35:39;;;;;;;2.23;2.03;;;33.40;99.90;;;;;;5034060;28;20452;-75
2023/07/15 11:38:10;;;;;;;5.23;2.10;;;33.00;99.90;;;;;;5034544;28;20972;-76
2023/07/15 11:40:58;;;;;;;4.40;2.10;;;32.90;99.90;;;;;;5037236;28;20417;-69
2023/07/15 11:43:28;;;;;;;2.13;2.00;;;32.40;99.90;;;;;;5037008;28;20422;-72
2023/07/15 11:45:58;;;;;;;3.20;2.50;;;32.10;99.90;;;;;;5020912;28;20422;-77
2023/07/15 11:48:36;;;;;;;2.37;2.10;;;32.40;99.90;;;;;;5017006;28;20454;-70
2023/07/15 11:51:06;;;;;;;4.70;2.20;;;33.20;99.90;;;;;;5027874;28;20462;-74
2023/07/15 11:53:34;;;;;;;3.30;2.27;;;33.90;99.90;;;;;;5034233;28;20426;-72
2023/07/15 11:56:00;;;;;;;2.50;2.27;;;34.10;99.90;;;;;;5035583;28;20865;-73
2023/07/15 11:58:49;;;;;;;4.10;1.87;;;34.50;99.90;;;;;;5036670;28;20429;-73
2023/07/15 12:01:22;;;;;;;2.37;1.83;;;34.40;99.90;;;;;;5036231;28;20187;-71
2023/07/15 12:03:48;;;;;;;2.90;2.00;;;34.30;99.90;;;;;;5036650;28;20421;-71
2023/07/15 12:06:16;;;;;;;1.70;1.60;;;33.50;99.90;;;;;;5031899;28;20430;-77
2023/07/15 12:08:42;;;;;;;2.10;2.00;;;32.80;99.90;;;;;;5032954;28;20929;-69
2023/07/15 12:11:17;;;;;;;5.10;1.80;;;33.00;99.90;;;;;;5036683;28;20460;-69
2023/07/15 12:13:42;;;;;;;3.40;1.80;;;33.00;99.90;;;;;;5029924;28;20437;-69
2023/07/15 12:16:09;;;;;;;2.93;2.20;;;32.50;99.90;;;;;;5035535;28;20762;-77
2023/07/15 12:18:34;;;;;;;10.50;2.37;;;31.80;99.90;;;;;;5035629;28;20191;-75
2023/07/15 12:21:00;;;;;;;2.23;1.90;;;31.80;99.90;;;;;;5036583;28;20414;-75
2023/07/15 12:23:26;;;;;;;2.87;2.13;;;31.70;99.90;;;;;;5021515;28;20258;-67
2023/07/15 12:25:51;;;;;;;3.73;2.17;;;31.20;99.90;;;;;;5030846;28;20179;-67
2023/07/15 12:28:17;;;;;;;4.83;2.57;;;30.90;99.90;;;;;;5035478;28;20249;-71
2023/07/15 12:30:43;;;;;;;2.40;1.90;;;30.90;99.90;;;;;;5036040;28;20562;-68
2023/07/15 12:33:08;;;;;;;3.13;2.20;;;30.90;99.90;;;;;;5035690;28;20246;-71
2023/07/15 12:35:34;;;;;;;5.87;2.70;;;31.30;99.90;;;;;;5035350;28;20175;-73
2023/07/15 12:38:00;;;;;;;2.73;1.90;;;31.60;99.90;;;;;;5035322;28;20195;-69
2023/07/15 12:40:25;;;;;;;2.17;1.97;;;31.60;99.90;;;;;;5036232;28;20180;-72
2023/07/15 12:42:51;;;;;;;2.20;2.00;;;31.10;99.90;;;;;;5035880;28;20199;-74
2023/07/15 12:45:17;;;;;;;3.37;2.43;;;31.00;99.90;;;;;;5035072;28;20176;-73
2023/07/15 12:47:42;;;;;;;3.00;2.67;;;30.80;99.90;;;;;;5034530;28;20248;-77